KAVL/AVL METAR and TAF weather

Enter ICAO airport designator
Station Type Date Time Source
KAVL METAR 2021/09/20 03:54 UTC NOAA

KAVL 200354Z AUTO 00000KT 10SM FEW026 19/19 A3021 RMK AO2 SLP204 T01940189


Station Type Date Time Source
KAVL Decoded METAR 2021/09/20 03:54 UTC NOAA

ASHEVILLE REGIONAL AIRPORT, NC, United States (KAVL) 35-26N 82-32W 670M
Sep 19, 2021 - 11:54 PM EDT / 2021.09.20 0354 UTC
Wind: Calm:0
Visibility: 10 mile(s):0
Sky conditions: mostly clear
Temperature: 66.9 F (19.4 C)
Dew Point: 66.0 F (18.9 C)
Relative Humidity: 96%
Pressure (altimeter): 30.21 in. Hg (1023 hPa)
ob: KAVL 200354Z AUTO 00000KT 10SM FEW026 19/19 A3021 RMK AO2 SLP204 T01940189
cycle: 4

Station Type Date Time Source
KAVL TAF 2021/09/19 18:33 UTC NOAA

TAF KAVL 191729Z 1918/2018 14007KT P6SM VCTS SCT025 BKN035CB
TEMPO 1918/1922 6SM -TSRA BR OVC020CB
FM200000 15004KT P6SM VCSH SCT040 OVC100
FM200900 15003KT 3SM BR VCSH OVC007
FM201300 16006KT 6SM -SHRA BR SCT010 OVC020 PROB30 2014/2018 3SM -SHRA BR OVC025

Example: see airport list